Orangeburg, South Carolina
Current Conditions -  °F | °C
As of 12:53 AM on Thursday 29 Jan 2015 (Local Time) from KOGB Reporting Station
Clear Clear  
Wind Chill: 29°   Ceiling: Unl
Heat Index: 29°   Visibility: 10mi
Dew Point: 23°   Wind: 0mph
Humidity: 78%   Direction: NA
Pressure: 30.33"   Gusts: NA
Location:  33.49°N, 80.86°W
Report Text: KOGB 290553Z AUTO 00000KT 10SM CLR M02/M05 A3033 RMK AO2 UPB25E37 SLP272 P0000 60000 T10171050 10044 21017 50001
Loading
Personal Weather Stations






























Interactive Weather Map New forecast layout! Learn more

10-Day Weather Forecast

Advertisements
Track Severe Weather on mobile